sensor_id;sensor_type;location;lat;lon;timestamp;P1;durP1;ratioP1;P2;durP2;ratioP2
44822;SDS011;51097;51.984;5.650;2024-03-02T00:02:18;3.47;;;1.10;;
44822;SDS011;51097;51.984;5.650;2024-03-02T00:04:44;3.13;;;1.33;;
44822;SDS011;51097;51.984;5.650;2024-03-02T00:07:10;2.88;;;1.13;;
44822;SDS011;51097;51.984;5.650;2024-03-02T00:09:39;6.13;;;2.00;;
44822;SDS011;51097;51.984;5.650;2024-03-02T00:12:04;2.13;;;1.02;;
44822;SDS011;51097;51.984;5.650;2024-03-02T00:14:30;2.63;;;1.33;;
44822;SDS011;51097;51.984;5.650;2024-03-02T00:16:56;6.50;;;1.40;;
44822;SDS011;51097;51.984;5.650;2024-03-02T00:19:22;3.63;;;1.35;;
44822;SDS011;51097;51.984;5.650;2024-03-02T00:21:48;3.42;;;1.77;;
44822;SDS011;51097;51.984;5.650;2024-03-02T00:26:59;1.75;;;0.90;;
44822;SDS011;51097;51.984;5.650;2024-03-02T00:29:25;4.07;;;1.02;;
44822;SDS011;51097;51.984;5.650;2024-03-02T00:31:51;2.85;;;1.38;;
44822;SDS011;51097;51.984;5.650;2024-03-02T00:34:18;5.45;;;1.75;;
44822;SDS011;51097;51.984;5.650;2024-03-02T00:36:44;4.45;;;1.60;;
44822;SDS011;51097;51.984;5.650;2024-03-02T00:39:11;1.52;;;1.08;;
44822;SDS011;51097;51.984;5.650;2024-03-02T00:41:38;2.55;;;1.08;;
44822;SDS011;51097;51.984;5.650;2024-03-02T00:44:07;3.25;;;1.35;;
44822;SDS011;51097;51.984;5.650;2024-03-02T00:46:38;2.35;;;1.50;;
44822;SDS011;51097;51.984;5.650;2024-03-02T00:51:36;2.45;;;1.48;;
44822;SDS011;51097;51.984;5.650;2024-03-02T00:54:05;1.60;;;1.10;;
44822;SDS011;51097;51.984;5.650;2024-03-02T00:58:59;2.75;;;1.20;;
44822;SDS011;51097;51.984;5.650;2024-03-02T01:01:25;1.55;;;0.93;;
44822;SDS011;51097;51.984;5.650;2024-03-02T01:03:51;2.55;;;1.48;;
44822;SDS011;51097;51.984;5.650;2024-03-02T01:06:17;2.00;;;0.70;;
44822;SDS011;51097;51.984;5.650;2024-03-02T01:08:43;0.40;;;0.40;;
44822;SDS011;51097;51.984;5.650;2024-03-02T01:11:08;1.10;;;0.30;;
44822;SDS011;51097;51.984;5.650;2024-03-02T01:13:34;0.20;;;0.20;;
44822;SDS011;51097;51.984;5.650;2024-03-02T01:16:00;1.95;;;0.40;;
44822;SDS011;51097;51.984;5.650;2024-03-02T01:18:26;0.70;;;0.30;;
44822;SDS011;51097;51.984;5.650;2024-03-02T01:20:52;0.80;;;0.50;;
44822;SDS011;51097;51.984;5.650;2024-03-02T01:23:24;0.40;;;0.40;;
44822;SDS011;51097;51.984;5.650;2024-03-02T01:25:50;0.52;;;0.45;;
44822;SDS011;51097;51.984;5.650;2024-03-02T01:28:17;0.75;;;0.25;;
44822;SDS011;51097;51.984;5.650;2024-03-02T01:30:44;0.43;;;0.43;;
44822;SDS011;51097;51.984;5.650;2024-03-02T01:33:09;0.30;;;0.30;;
44822;SDS011;51097;51.984;5.650;2024-03-02T01:35:35;3.10;;;0.63;;
44822;SDS011;51097;51.984;5.650;2024-03-02T01:38:02;0.60;;;0.40;;
44822;SDS011;51097;51.984;5.650;2024-03-02T01:40:28;0.40;;;0.35;;
44822;SDS011;51097;51.984;5.650;2024-03-02T01:42:54;0.40;;;0.25;;
44822;SDS011;51097;51.984;5.650;2024-03-02T01:45:20;1.10;;;0.32;;
44822;SDS011;51097;51.984;5.650;2024-03-02T01:47:46;2.05;;;0.30;;
44822;SDS011;51097;51.984;5.650;2024-03-02T01:50:12;0.40;;;0.32;;
44822;SDS011;51097;51.984;5.650;2024-03-02T01:52:38;1.00;;;0.50;;
44822;SDS011;51097;51.984;5.650;2024-03-02T01:55:04;0.50;;;0.50;;
44822;SDS011;51097;51.984;5.650;2024-03-02T01:57:31;0.40;;;0.40;;
44822;SDS011;51097;51.984;5.650;2024-03-02T01:59:57;1.00;;;0.50;;
44822;SDS011;51097;51.984;5.650;2024-03-02T02:02:23;0.30;;;0.30;;
44822;SDS011;51097;51.984;5.650;2024-03-02T02:04:48;0.52;;;0.40;;
44822;SDS011;51097;51.984;5.650;2024-03-02T02:07:14;1.92;;;0.57;;
44822;SDS011;51097;51.984;5.650;2024-03-02T02:09:42;0.82;;;0.30;;
44822;SDS011;51097;51.984;5.650;2024-03-02T02:12:09;1.48;;;0.52;;
44822;SDS011;51097;51.984;5.650;2024-03-02T02:14:35;0.60;;;0.60;;
44822;SDS011;51097;51.984;5.650;2024-03-02T02:17:01;0.77;;;0.32;;
44822;SDS011;51097;51.984;5.650;2024-03-02T02:19:27;2.47;;;0.52;;
44822;SDS011;51097;51.984;5.650;2024-03-02T02:21:53;0.40;;;0.40;;
44822;SDS011;51097;51.984;5.650;2024-03-02T02:24:19;0.88;;;0.52;;
44822;SDS011;51097;51.984;5.650;2024-03-02T02:26:44;0.38;;;0.38;;
44822;SDS011;51097;51.984;5.650;2024-03-02T02:29:10;0.93;;;0.40;;
44822;SDS011;51097;51.984;5.650;2024-03-02T02:31:39;0.40;;;0.40;;
44822;SDS011;51097;51.984;5.650;2024-03-02T02:34:05;0.70;;;0.50;;
44822;SDS011;51097;51.984;5.650;2024-03-02T02:36:31;0.52;;;0.40;;
44822;SDS011;51097;51.984;5.650;2024-03-02T02:39:02;0.63;;;0.60;;
44822;SDS011;51097;51.984;5.650;2024-03-02T02:41:29;1.15;;;0.60;;
44822;SDS011;51097;51.984;5.650;2024-03-02T02:43:55;1.05;;;0.40;;
44822;SDS011;51097;51.984;5.650;2024-03-02T02:46:21;1.08;;;0.40;;
44822;SDS011;51097;51.984;5.650;2024-03-02T02:48:46;1.05;;;0.38;;
44822;SDS011;51097;51.984;5.650;2024-03-02T02:51:12;0.93;;;0.80;;
44822;SDS011;51097;51.984;5.650;2024-03-02T02:53:37;0.47;;;0.47;;
44822;SDS011;51097;51.984;5.650;2024-03-02T02:56:06;1.73;;;0.65;;
44822;SDS011;51097;51.984;5.650;2024-03-02T02:58:39;0.55;;;0.43;;
44822;SDS011;51097;51.984;5.650;2024-03-02T03:01:06;1.27;;;0.50;;
44822;SDS011;51097;51.984;5.650;2024-03-02T03:03:32;1.33;;;0.40;;
44822;SDS011;51097;51.984;5.650;2024-03-02T03:05:58;1.25;;;0.57;;
44822;SDS011;51097;51.984;5.650;2024-03-02T03:08:23;0.77;;;0.50;;
44822;SDS011;51097;51.984;5.650;2024-03-02T03:10:49;0.40;;;0.40;;
44822;SDS011;51097;51.984;5.650;2024-03-02T03:13:18;0.52;;;0.47;;
44822;SDS011;51097;51.984;5.650;2024-03-02T03:15:43;0.50;;;0.50;;
44822;SDS011;51097;51.984;5.650;2024-03-02T03:18:09;0.90;;;0.47;;
44822;SDS011;51097;51.984;5.650;2024-03-02T03:20:35;2.53;;;1.40;;
44822;SDS011;51097;51.984;5.650;2024-03-02T03:23:01;1.20;;;0.40;;
44822;SDS011;51097;51.984;5.650;2024-03-02T03:25:28;0.63;;;0.38;;
44822;SDS011;51097;51.984;5.650;2024-03-02T03:27:54;0.50;;;0.50;;
44822;SDS011;51097;51.984;5.650;2024-03-02T03:30:20;0.90;;;0.73;;
44822;SDS011;51097;51.984;5.650;2024-03-02T03:32:45;1.70;;;0.40;;
44822;SDS011;51097;51.984;5.650;2024-03-02T03:35:13;0.38;;;0.38;;
44822;SDS011;51097;51.984;5.650;2024-03-02T03:37:40;0.50;;;0.50;;
44822;SDS011;51097;51.984;5.650;2024-03-02T03:40:06;0.20;;;0.20;;
44822;SDS011;51097;51.984;5.650;2024-03-02T03:42:40;0.60;;;0.40;;
44822;SDS011;51097;51.984;5.650;2024-03-02T03:45:06;0.40;;;0.40;;
44822;SDS011;51097;51.984;5.650;2024-03-02T03:47:32;0.50;;;0.38;;
44822;SDS011;51097;51.984;5.650;2024-03-02T03:49:58;0.30;;;0.30;;
44822;SDS011;51097;51.984;5.650;2024-03-02T03:52:23;2.30;;;0.40;;
44822;SDS011;51097;51.984;5.650;2024-03-02T03:54:49;0.70;;;0.40;;
44822;SDS011;51097;51.984;5.650;2024-03-02T03:57:15;0.45;;;0.45;;
44822;SDS011;51097;51.984;5.650;2024-03-02T03:59:41;1.58;;;0.30;;
44822;SDS011;51097;51.984;5.650;2024-03-02T04:02:07;0.85;;;0.50;;
44822;SDS011;51097;51.984;5.650;2024-03-02T04:04:33;1.02;;;0.50;;
44822;SDS011;51097;51.984;5.650;2024-03-02T04:06:59;0.82;;;0.40;;
44822;SDS011;51097;51.984;5.650;2024-03-02T04:09:25;0.90;;;0.47;;
44822;SDS011;51097;51.984;5.650;2024-03-02T04:11:51;1.55;;;0.40;;
44822;SDS011;51097;51.984;5.650;2024-03-02T04:14:16;0.45;;;0.40;;
44822;SDS011;51097;51.984;5.650;2024-03-02T04:16:42;1.45;;;0.50;;
44822;SDS011;51097;51.984;5.650;2024-03-02T04:19:07;1.00;;;0.45;;
44822;SDS011;51097;51.984;5.650;2024-03-02T04:21:33;2.55;;;0.60;;
44822;SDS011;51097;51.984;5.650;2024-03-02T04:23:58;1.13;;;0.57;;
44822;SDS011;51097;51.984;5.650;2024-03-02T04:26:24;0.73;;;0.40;;
44822;SDS011;51097;51.984;5.650;2024-03-02T04:28:51;0.65;;;0.47;;
44822;SDS011;51097;51.984;5.650;2024-03-02T04:31:17;0.60;;;0.45;;
44822;SDS011;51097;51.984;5.650;2024-03-02T04:33:43;3.22;;;0.70;;
44822;SDS011;51097;51.984;5.650;2024-03-02T04:36:08;0.50;;;0.47;;
44822;SDS011;51097;51.984;5.650;2024-03-02T04:38:40;2.40;;;0.50;;
44822;SDS011;51097;51.984;5.650;2024-03-02T04:41:06;1.35;;;0.47;;
44822;SDS011;51097;51.984;5.650;2024-03-02T04:43:32;2.20;;;0.60;;
44822;SDS011;51097;51.984;5.650;2024-03-02T04:45:58;1.38;;;0.50;;
44822;SDS011;51097;51.984;5.650;2024-03-02T04:48:24;0.40;;;0.40;;
44822;SDS011;51097;51.984;5.650;2024-03-02T04:50:49;0.57;;;0.50;;
44822;SDS011;51097;51.984;5.650;2024-03-02T04:53:15;0.82;;;0.50;;
44822;SDS011;51097;51.984;5.650;2024-03-02T04:55:40;0.50;;;0.38;;
44822;SDS011;51097;51.984;5.650;2024-03-02T04:58:06;0.40;;;0.40;;
44822;SDS011;51097;51.984;5.650;2024-03-02T05:00:32;0.32;;;0.30;;
44822;SDS011;51097;51.984;5.650;2024-03-02T05:02:57;0.40;;;0.30;;
44822;SDS011;51097;51.984;5.650;2024-03-02T05:05:23;2.33;;;0.60;;
44822;SDS011;51097;51.984;5.650;2024-03-02T05:07:49;1.00;;;0.35;;
44822;SDS011;51097;51.984;5.650;2024-03-02T05:10:14;0.28;;;0.28;;
44822;SDS011;51097;51.984;5.650;2024-03-02T05:12:40;4.85;;;0.50;;
44822;SDS011;51097;51.984;5.650;2024-03-02T05:15:09;1.15;;;0.40;;
44822;SDS011;51097;51.984;5.650;2024-03-02T05:17:38;2.70;;;0.40;;
44822;SDS011;51097;51.984;5.650;2024-03-02T05:20:05;0.40;;;0.30;;
44822;SDS011;51097;51.984;5.650;2024-03-02T05:22:33;0.68;;;0.55;;
44822;SDS011;51097;51.984;5.650;2024-03-02T05:24:59;2.70;;;0.80;;
44822;SDS011;51097;51.984;5.650;2024-03-02T05:27:25;0.90;;;0.82;;
44822;SDS011;51097;51.984;5.650;2024-03-02T05:29:51;1.20;;;0.82;;
44822;SDS011;51097;51.984;5.650;2024-03-02T05:32:17;1.02;;;0.90;;
44822;SDS011;51097;51.984;5.650;2024-03-02T05:34:43;2.05;;;1.33;;
44822;SDS011;51097;51.984;5.650;2024-03-02T05:37:08;2.17;;;1.70;;
44822;SDS011;51097;51.984;5.650;2024-03-02T05:39:34;2.70;;;1.63;;
44822;SDS011;51097;51.984;5.650;2024-03-02T05:41:59;2.65;;;1.35;;
44822;SDS011;51097;51.984;5.650;2024-03-02T05:44:25;1.88;;;1.13;;
44822;SDS011;51097;51.984;5.650;2024-03-02T05:46:50;1.60;;;1.00;;
44822;SDS011;51097;51.984;5.650;2024-03-02T05:49:16;1.95;;;1.33;;
44822;SDS011;51097;51.984;5.650;2024-03-02T05:51:41;2.38;;;1.05;;
44822;SDS011;51097;51.984;5.650;2024-03-02T05:54:07;3.60;;;1.00;;
44822;SDS011;51097;51.984;5.650;2024-03-02T05:56:32;3.47;;;1.30;;
44822;SDS011;51097;51.984;5.650;2024-03-02T05:58:58;3.25;;;1.25;;
44822;SDS011;51097;51.984;5.650;2024-03-02T06:01:39;3.85;;;1.13;;
44822;SDS011;51097;51.984;5.650;2024-03-02T06:04:05;2.13;;;0.95;;
44822;SDS011;51097;51.984;5.650;2024-03-02T06:06:31;0.82;;;0.70;;
44822;SDS011;51097;51.984;5.650;2024-03-02T06:08:59;2.42;;;0.50;;
44822;SDS011;51097;51.984;5.650;2024-03-02T06:11:25;0.93;;;0.50;;
44822;SDS011;51097;51.984;5.650;2024-03-02T06:13:50;0.82;;;0.50;;
44822;SDS011;51097;51.984;5.650;2024-03-02T06:16:16;1.42;;;0.50;;
44822;SDS011;51097;51.984;5.650;2024-03-02T06:18:41;1.65;;;0.47;;
44822;SDS011;51097;51.984;5.650;2024-03-02T06:21:07;0.50;;;0.50;;
44822;SDS011;51097;51.984;5.650;2024-03-02T06:23:33;3.70;;;0.95;;
44822;SDS011;51097;51.984;5.650;2024-03-02T06:26:00;0.85;;;0.50;;
44822;SDS011;51097;51.984;5.650;2024-03-02T06:28:26;1.30;;;0.80;;
44822;SDS011;51097;51.984;5.650;2024-03-02T06:30:51;1.85;;;0.70;;
44822;SDS011;51097;51.984;5.650;2024-03-02T06:33:17;3.22;;;0.55;;
44822;SDS011;51097;51.984;5.650;2024-03-02T06:35:42;0.70;;;0.40;;
44822;SDS011;51097;51.984;5.650;2024-03-02T06:38:08;0.88;;;0.60;;
44822;SDS011;51097;51.984;5.650;2024-03-02T06:40:36;3.33;;;0.60;;
44822;SDS011;51097;51.984;5.650;2024-03-02T06:43:04;1.63;;;0.60;;
44822;SDS011;51097;51.984;5.650;2024-03-02T06:45:30;1.95;;;0.45;;
44822;SDS011;51097;51.984;5.650;2024-03-02T06:47:55;0.65;;;0.50;;
44822;SDS011;51097;51.984;5.650;2024-03-02T06:50:21;0.98;;;0.50;;
44822;SDS011;51097;51.984;5.650;2024-03-02T06:52:47;0.63;;;0.60;;
44822;SDS011;51097;51.984;5.650;2024-03-02T06:55:12;0.47;;;0.38;;
44822;SDS011;51097;51.984;5.650;2024-03-02T06:57:38;0.60;;;0.40;;
44822;SDS011;51097;51.984;5.650;2024-03-02T07:00:04;3.20;;;0.55;;
44822;SDS011;51097;51.984;5.650;2024-03-02T07:02:32;2.47;;;0.50;;
44822;SDS011;51097;51.984;5.650;2024-03-02T07:04:57;1.20;;;1.05;;
44822;SDS011;51097;51.984;5.650;2024-03-02T07:07:23;1.50;;;0.60;;
44822;SDS011;51097;51.984;5.650;2024-03-02T07:09:49;4.55;;;0.88;;
44822;SDS011;51097;51.984;5.650;2024-03-02T07:12:14;1.35;;;0.75;;
44822;SDS011;51097;51.984;5.650;2024-03-02T07:14:40;0.98;;;0.60;;
44822;SDS011;51097;51.984;5.650;2024-03-02T07:17:24;2.75;;;0.63;;
44822;SDS011;51097;51.984;5.650;2024-03-02T07:19:50;1.27;;;0.70;;
44822;SDS011;51097;51.984;5.650;2024-03-02T07:22:16;2.67;;;0.63;;
44822;SDS011;51097;51.984;5.650;2024-03-02T07:24:44;3.58;;;0.75;;
44822;SDS011;51097;51.984;5.650;2024-03-02T07:27:10;1.77;;;0.70;;
44822;SDS011;51097;51.984;5.650;2024-03-02T07:29:40;5.05;;;1.60;;
44822;SDS011;51097;51.984;5.650;2024-03-02T07:32:08;1.38;;;1.02;;
44822;SDS011;51097;51.984;5.650;2024-03-02T07:34:34;3.92;;;1.17;;
44822;SDS011;51097;51.984;5.650;2024-03-02T07:37:00;2.85;;;1.10;;
44822;SDS011;51097;51.984;5.650;2024-03-02T07:39:26;3.50;;;1.60;;
44822;SDS011;51097;51.984;5.650;2024-03-02T07:41:52;1.02;;;0.70;;
44822;SDS011;51097;51.984;5.650;2024-03-02T07:44:17;2.70;;;0.80;;
44822;SDS011;51097;51.984;5.650;2024-03-02T07:46:47;3.72;;;1.10;;
44822;SDS011;51097;51.984;5.650;2024-03-02T07:49:15;1.95;;;0.70;;
44822;SDS011;51097;51.984;5.650;2024-03-02T07:51:43;2.30;;;0.80;;
44822;SDS011;51097;51.984;5.650;2024-03-02T07:54:09;1.10;;;0.95;;
44822;SDS011;51097;51.984;5.650;2024-03-02T07:56:35;1.33;;;0.90;;
44822;SDS011;51097;51.984;5.650;2024-03-02T07:59:01;3.22;;;1.00;;
44822;SDS011;51097;51.984;5.650;2024-03-02T08:01:28;5.57;;;0.98;;
44822;SDS011;51097;51.984;5.650;2024-03-02T08:03:55;2.00;;;0.90;;
44822;SDS011;51097;51.984;5.650;2024-03-02T08:06:25;3.33;;;1.00;;
44822;SDS011;51097;51.984;5.650;2024-03-02T08:08:54;1.98;;;0.80;;
44822;SDS011;51097;51.984;5.650;2024-03-02T08:11:23;1.03;;;0.87;;
44822;SDS011;51097;51.984;5.650;2024-03-02T08:13:49;4.45;;;0.60;;
44822;SDS011;51097;51.984;5.650;2024-03-02T08:16:18;0.55;;;0.50;;
44822;SDS011;51097;51.984;5.650;2024-03-02T08:18:47;2.25;;;0.68;;
44822;SDS011;51097;51.984;5.650;2024-03-02T08:21:13;0.98;;;0.45;;
44822;SDS011;51097;51.984;5.650;2024-03-02T08:23:39;1.80;;;1.13;;
44822;SDS011;51097;51.984;5.650;2024-03-02T08:26:06;1.70;;;0.75;;
44822;SDS011;51097;51.984;5.650;2024-03-02T08:28:32;2.00;;;1.75;;
44822;SDS011;51097;51.984;5.650;2024-03-02T08:30:58;1.48;;;0.82;;
44822;SDS011;51097;51.984;5.650;2024-03-02T08:33:24;4.85;;;1.45;;
44822;SDS011;51097;51.984;5.650;2024-03-02T08:35:49;2.30;;;0.38;;
44822;SDS011;51097;51.984;5.650;2024-03-02T08:38:15;4.95;;;0.75;;
44822;SDS011;51097;51.984;5.650;2024-03-02T08:40:41;3.58;;;0.82;;
44822;SDS011;51097;51.984;5.650;2024-03-02T08:43:06;4.53;;;1.00;;
44822;SDS011;51097;51.984;5.650;2024-03-02T08:45:32;3.65;;;0.82;;
44822;SDS011;51097;51.984;5.650;2024-03-02T08:47:59;3.45;;;0.70;;
44822;SDS011;51097;51.984;5.650;2024-03-02T08:50:25;1.25;;;0.80;;
44822;SDS011;51097;51.984;5.650;2024-03-02T08:52:50;2.08;;;0.55;;
44822;SDS011;51097;51.984;5.650;2024-03-02T08:55:18;1.85;;;0.90;;
44822;SDS011;51097;51.984;5.650;2024-03-02T08:57:44;3.28;;;0.80;;
44822;SDS011;51097;51.984;5.650;2024-03-02T09:00:09;3.80;;;1.40;;
44822;SDS011;51097;51.984;5.650;2024-03-02T09:02:35;2.05;;;1.05;;
44822;SDS011;51097;51.984;5.650;2024-03-02T09:05:01;3.13;;;0.70;;
44822;SDS011;51097;51.984;5.650;2024-03-02T09:07:27;3.33;;;1.10;;
44822;SDS011;51097;51.984;5.650;2024-03-02T09:09:52;4.40;;;0.70;;
44822;SDS011;51097;51.984;5.650;2024-03-02T09:12:18;2.47;;;1.08;;
44822;SDS011;51097;51.984;5.650;2024-03-02T09:14:44;5.32;;;1.38;;
44822;SDS011;51097;51.984;5.650;2024-03-02T09:17:11;2.92;;;0.80;;
44822;SDS011;51097;51.984;5.650;2024-03-02T09:19:37;2.53;;;0.70;;
44822;SDS011;51097;51.984;5.650;2024-03-02T09:22:03;1.55;;;0.80;;
44822;SDS011;51097;51.984;5.650;2024-03-02T09:24:30;2.67;;;0.57;;
44822;SDS011;51097;51.984;5.650;2024-03-02T09:26:56;2.35;;;1.08;;
44822;SDS011;51097;51.984;5.650;2024-03-02T09:29:22;2.33;;;0.88;;
44822;SDS011;51097;51.984;5.650;2024-03-02T09:31:50;1.27;;;0.77;;
44822;SDS011;51097;51.984;5.650;2024-03-02T09:34:16;2.80;;;1.02;;
44822;SDS011;51097;51.984;5.650;2024-03-02T09:36:42;1.30;;;0.70;;
44822;SDS011;51097;51.984;5.650;2024-03-02T09:39:07;4.32;;;1.20;;
44822;SDS011;51097;51.984;5.650;2024-03-02T09:41:34;2.60;;;0.82;;
44822;SDS011;51097;51.984;5.650;2024-03-02T09:44:01;2.17;;;0.88;;
44822;SDS011;51097;51.984;5.650;2024-03-02T09:46:27;1.40;;;0.52;;
44822;SDS011;51097;51.984;5.650;2024-03-02T09:48:53;3.00;;;0.85;;
44822;SDS011;51097;51.984;5.650;2024-03-02T09:51:22;3.97;;;0.95;;
44822;SDS011;51097;51.984;5.650;2024-03-02T09:53:48;3.75;;;0.77;;
44822;SDS011;51097;51.984;5.650;2024-03-02T09:56:14;4.65;;;0.93;;
44822;SDS011;51097;51.984;5.650;2024-03-02T09:58:43;5.03;;;0.93;;
44822;SDS011;51097;51.984;5.650;2024-03-02T10:01:12;3.83;;;0.85;;
44822;SDS011;51097;51.984;5.650;2024-03-02T10:03:38;2.88;;;1.20;;
44822;SDS011;51097;51.984;5.650;2024-03-02T10:06:22;5.30;;;0.70;;
44822;SDS011;51097;51.984;5.650;2024-03-02T10:08:49;6.30;;;1.00;;
44822;SDS011;51097;51.984;5.650;2024-03-02T10:16:35;1.52;;;0.70;;
44822;SDS011;51097;51.984;5.650;2024-03-02T10:19:20;7.00;;;0.90;;
44822;SDS011;51097;51.984;5.650;2024-03-02T10:21:47;3.50;;;0.98;;
44822;SDS011;51097;51.984;5.650;2024-03-02T10:24:14;3.10;;;1.10;;
44822;SDS011;51097;51.984;5.650;2024-03-02T10:26:40;3.67;;;0.70;;
44822;SDS011;51097;51.984;5.650;2024-03-02T10:29:07;4.65;;;0.85;;
44822;SDS011;51097;51.984;5.650;2024-03-02T10:31:33;6.50;;;1.38;;
44822;SDS011;51097;51.984;5.650;2024-03-02T10:34:00;2.75;;;0.80;;
44822;SDS011;51097;51.984;5.650;2024-03-02T10:36:26;2.67;;;0.95;;
44822;SDS011;51097;51.984;5.650;2024-03-02T10:38:53;2.75;;;0.70;;
44822;SDS011;51097;51.984;5.650;2024-03-02T10:41:26;5.07;;;1.30;;
44822;SDS011;51097;51.984;5.650;2024-03-02T10:43:53;5.78;;;1.58;;
44822;SDS011;51097;51.984;5.650;2024-03-02T10:46:24;4.10;;;0.70;;
44822;SDS011;51097;51.984;5.650;2024-03-02T10:48:56;2.17;;;0.63;;
44822;SDS011;51097;51.984;5.650;2024-03-02T10:51:24;4.13;;;0.80;;
44822;SDS011;51097;51.984;5.650;2024-03-02T10:53:54;2.08;;;0.65;;
44822;SDS011;51097;51.984;5.650;2024-03-02T10:56:41;4.13;;;0.70;;
44822;SDS011;51097;51.984;5.650;2024-03-02T11:01:41;3.03;;;0.70;;
44822;SDS011;51097;51.984;5.650;2024-03-02T11:04:08;1.85;;;0.70;;
44822;SDS011;51097;51.984;5.650;2024-03-02T11:06:37;3.42;;;0.52;;
44822;SDS011;51097;51.984;5.650;2024-03-02T11:09:07;0.85;;;0.57;;
44822;SDS011;51097;51.984;5.650;2024-03-02T11:11:40;5.28;;;0.80;;
44822;SDS011;51097;51.984;5.650;2024-03-02T11:14:10;3.60;;;0.75;;
44822;SDS011;51097;51.984;5.650;2024-03-02T11:16:39;3.95;;;1.00;;
44822;SDS011;51097;51.984;5.650;2024-03-02T11:19:07;3.10;;;0.98;;
44822;SDS011;51097;51.984;5.650;2024-03-02T11:21:40;1.92;;;0.65;;
44822;SDS011;51097;51.984;5.650;2024-03-02T11:26:48;2.10;;;0.90;;
44822;SDS011;51097;51.984;5.650;2024-03-02T11:32:00;3.67;;;0.93;;
44822;SDS011;51097;51.984;5.650;2024-03-02T11:34:36;3.20;;;0.60;;
44822;SDS011;51097;51.984;5.650;2024-03-02T11:37:04;2.67;;;0.80;;
44822;SDS011;51097;51.984;5.650;2024-03-02T11:39:30;2.45;;;0.73;;
44822;SDS011;51097;51.984;5.650;2024-03-02T11:41:56;1.80;;;0.70;;
44822;SDS011;51097;51.984;5.650;2024-03-02T11:44:22;2.40;;;0.70;;
44822;SDS011;51097;51.984;5.650;2024-03-02T11:46:52;2.10;;;0.85;;
44822;SDS011;51097;51.984;5.650;2024-03-02T11:49:55;1.52;;;0.65;;
44822;SDS011;51097;51.984;5.650;2024-03-02T11:52:16;2.90;;;0.65;;
44822;SDS011;51097;51.984;5.650;2024-03-02T11:54:44;2.75;;;0.65;;
44822;SDS011;51097;51.984;5.650;2024-03-02T11:57:17;4.85;;;1.00;;
44822;SDS011;51097;51.984;5.650;2024-03-02T11:59:44;1.20;;;0.60;;
44822;SDS011;51097;51.984;5.650;2024-03-02T12:02:17;3.15;;;0.73;;
44822;SDS011;51097;51.984;5.650;2024-03-02T12:04:44;2.92;;;0.60;;
44822;SDS011;51097;51.984;5.650;2024-03-02T12:07:11;2.80;;;1.05;;
44822;SDS011;51097;51.984;5.650;2024-03-02T12:09:37;4.93;;;1.48;;
44822;SDS011;51097;51.984;5.650;2024-03-02T12:12:09;3.03;;;1.23;;
44822;SDS011;51097;51.984;5.650;2024-03-02T12:14:36;3.10;;;1.17;;
44822;SDS011;51097;51.984;5.650;2024-03-02T12:17:03;3.15;;;1.23;;
44822;SDS011;51097;51.984;5.650;2024-03-02T12:19:30;1.38;;;0.60;;
44822;SDS011;51097;51.984;5.650;2024-03-02T12:21:56;2.08;;;0.90;;
44822;SDS011;51097;51.984;5.650;2024-03-02T12:24:22;3.03;;;0.70;;
44822;SDS011;51097;51.984;5.650;2024-03-02T12:26:49;1.65;;;0.73;;
44822;SDS011;51097;51.984;5.650;2024-03-02T12:29:15;1.55;;;0.60;;
44822;SDS011;51097;51.984;5.650;2024-03-02T12:31:42;2.85;;;1.10;;
44822;SDS011;51097;51.984;5.650;2024-03-02T12:34:10;4.15;;;1.25;;
44822;SDS011;51097;51.984;5.650;2024-03-02T12:36:38;2.40;;;0.90;;
44822;SDS011;51097;51.984;5.650;2024-03-02T12:39:04;2.08;;;1.27;;
44822;SDS011;51097;51.984;5.650;2024-03-02T12:41:30;3.28;;;0.80;;
44822;SDS011;51097;51.984;5.650;2024-03-02T12:43:56;2.60;;;0.75;;
44822;SDS011;51097;51.984;5.650;2024-03-02T12:46:21;4.43;;;0.70;;
44822;SDS011;51097;51.984;5.650;2024-03-02T12:48:47;1.20;;;0.63;;
44822;SDS011;51097;51.984;5.650;2024-03-02T12:51:12;2.45;;;0.88;;
44822;SDS011;51097;51.984;5.650;2024-03-02T12:53:39;3.85;;;0.90;;
44822;SDS011;51097;51.984;5.650;2024-03-02T12:56:05;1.58;;;0.75;;
44822;SDS011;51097;51.984;5.650;2024-03-02T12:58:38;3.45;;;1.10;;
44822;SDS011;51097;51.984;5.650;2024-03-02T13:01:07;2.17;;;0.77;;
44822;SDS011;51097;51.984;5.650;2024-03-02T13:03:37;5.10;;;0.70;;
44822;SDS011;51097;51.984;5.650;2024-03-02T13:06:04;2.38;;;0.60;;
44822;SDS011;51097;51.984;5.650;2024-03-02T13:08:31;3.78;;;0.98;;
44822;SDS011;51097;51.984;5.650;2024-03-02T13:10:57;3.13;;;0.90;;
44822;SDS011;51097;51.984;5.650;2024-03-02T13:13:22;3.08;;;0.90;;
44822;SDS011;51097;51.984;5.650;2024-03-02T13:15:48;2.35;;;0.73;;
44822;SDS011;51097;51.984;5.650;2024-03-02T13:18:13;2.40;;;1.10;;
44822;SDS011;51097;51.984;5.650;2024-03-02T13:20:39;5.35;;;1.05;;
44822;SDS011;51097;51.984;5.650;2024-03-02T13:23:05;3.53;;;1.08;;
44822;SDS011;51097;51.984;5.650;2024-03-02T13:25:31;2.53;;;1.00;;
44822;SDS011;51097;51.984;5.650;2024-03-02T13:27:57;5.35;;;1.50;;
44822;SDS011;51097;51.984;5.650;2024-03-02T13:30:23;5.13;;;1.30;;
44822;SDS011;51097;51.984;5.650;2024-03-02T13:32:49;4.68;;;1.23;;
44822;SDS011;51097;51.984;5.650;2024-03-02T13:35:14;1.85;;;1.10;;
44822;SDS011;51097;51.984;5.650;2024-03-02T13:37:40;2.13;;;0.98;;
44822;SDS011;51097;51.984;5.650;2024-03-02T13:40:05;3.40;;;1.20;;
44822;SDS011;51097;51.984;5.650;2024-03-02T13:42:32;2.55;;;0.75;;
44822;SDS011;51097;51.984;5.650;2024-03-02T13:44:58;3.05;;;1.20;;
44822;SDS011;51097;51.984;5.650;2024-03-02T13:47:23;3.33;;;1.30;;
44822;SDS011;51097;51.984;5.650;2024-03-02T13:49:49;5.00;;;1.00;;
44822;SDS011;51097;51.984;5.650;2024-03-02T13:52:15;1.58;;;0.73;;
44822;SDS011;51097;51.984;5.650;2024-03-02T13:54:44;3.25;;;1.00;;
44822;SDS011;51097;51.984;5.650;2024-03-02T13:57:11;3.45;;;0.82;;
44822;SDS011;51097;51.984;5.650;2024-03-02T13:59:38;1.38;;;0.70;;
44822;SDS011;51097;51.984;5.650;2024-03-02T14:02:07;2.17;;;0.82;;
44822;SDS011;51097;51.984;5.650;2024-03-02T14:04:33;2.88;;;0.93;;
44822;SDS011;51097;51.984;5.650;2024-03-02T14:07:00;4.18;;;1.13;;
44822;SDS011;51097;51.984;5.650;2024-03-02T14:09:26;4.32;;;0.70;;
44822;SDS011;51097;51.984;5.650;2024-03-02T14:11:53;4.03;;;1.25;;
44822;SDS011;51097;51.984;5.650;2024-03-02T14:14:19;4.53;;;1.08;;
44822;SDS011;51097;51.984;5.650;2024-03-02T14:16:45;3.80;;;0.60;;
44822;SDS011;51097;51.984;5.650;2024-03-02T14:19:11;3.55;;;0.98;;
44822;SDS011;51097;51.984;5.650;2024-03-02T14:21:37;2.47;;;0.88;;
44822;SDS011;51097;51.984;5.650;2024-03-02T14:24:03;3.15;;;0.68;;
44822;SDS011;51097;51.984;5.650;2024-03-02T14:26:29;2.22;;;0.70;;
44822;SDS011;51097;51.984;5.650;2024-03-02T14:28:55;3.15;;;0.90;;
44822;SDS011;51097;51.984;5.650;2024-03-02T14:31:20;2.28;;;0.70;;
44822;SDS011;51097;51.984;5.650;2024-03-02T14:33:46;1.73;;;0.60;;
44822;SDS011;51097;51.984;5.650;2024-03-02T14:36:12;2.53;;;0.73;;
44822;SDS011;51097;51.984;5.650;2024-03-02T14:38:38;2.20;;;0.77;;
44822;SDS011;51097;51.984;5.650;2024-03-02T14:41:04;5.78;;;0.93;;
44822;SDS011;51097;51.984;5.650;2024-03-02T14:43:29;2.15;;;0.63;;
44822;SDS011;51097;51.984;5.650;2024-03-02T14:45:55;3.45;;;1.15;;
44822;SDS011;51097;51.984;5.650;2024-03-02T14:48:21;4.05;;;0.75;;
44822;SDS011;51097;51.984;5.650;2024-03-02T14:50:47;1.63;;;0.60;;
44822;SDS011;51097;51.984;5.650;2024-03-02T14:53:13;1.05;;;0.63;;
44822;SDS011;51097;51.984;5.650;2024-03-02T14:55:38;2.08;;;0.63;;
44822;SDS011;51097;51.984;5.650;2024-03-02T14:58:04;2.75;;;0.65;;
44822;SDS011;51097;51.984;5.650;2024-03-02T15:00:33;3.78;;;1.00;;
44822;SDS011;51097;51.984;5.650;2024-03-02T15:02:58;1.52;;;0.60;;
44822;SDS011;51097;51.984;5.650;2024-03-02T15:05:24;2.45;;;1.23;;
44822;SDS011;51097;51.984;5.650;2024-03-02T15:07:51;3.15;;;0.60;;